createdAt,value
2019-01-28T00:00:31.860Z,98002.17
2019-01-28T00:03:02.065Z,98009.30
2019-01-28T00:05:30.385Z,98009.46
2019-01-28T00:07:58.821Z,98008.77
2019-01-28T00:10:27.143Z,98004.50
2019-01-28T00:12:55.463Z,98012.66
2019-01-28T00:15:24.092Z,98007.75
2019-01-28T00:17:52.487Z,97997.90
2019-01-28T00:20:20.879Z,97998.20
2019-01-28T00:22:49.205Z,98006.73
2019-01-28T00:25:17.594Z,98004.71
2019-01-28T00:27:45.935Z,98005.18
2019-01-28T00:30:15.072Z,98004.70
2019-01-28T00:32:43.415Z,98008.13
2019-01-28T00:35:12.514Z,98016.36
2019-01-28T00:37:40.817Z,98022.57
2019-01-28T00:40:10.624Z,98019.20
2019-01-28T00:42:38.992Z,98010.88
2019-01-28T00:45:11.009Z,98015.37
2019-01-28T00:47:39.348Z,98020.19
2019-01-28T00:50:10.474Z,98016.56
2019-01-28T00:52:38.856Z,98024.41
2019-01-28T00:55:10.289Z,98020.09
2019-01-28T00:57:38.665Z,98021.72
2019-01-28T01:00:10.701Z,98026.44
2019-01-28T01:02:39.017Z,98026.34
2019-01-28T01:05:07.573Z,98021.86
2019-01-28T01:07:35.906Z,98025.25
2019-01-28T01:10:07.756Z,98031.73
2019-01-28T01:12:36.069Z,98034.34
2019-01-28T01:15:05.568Z,98039.62
2019-01-28T01:17:33.936Z,98028.52
2019-01-28T01:20:02.254Z,98038.62
2019-01-28T01:22:30.570Z,98034.96
2019-01-28T01:24:58.906Z,98036.45
2019-01-28T01:27:27.227Z,98036.77
2019-01-28T01:29:55.547Z,98040.43
2019-01-28T01:32:23.889Z,98035.64
2019-01-28T01:34:52.246Z,98038.66
2019-01-28T01:37:20.689Z,98031.33
2019-01-28T01:39:48.977Z,98036.22
2019-01-28T01:42:17.321Z,98037.98
2019-01-28T01:44:45.676Z,98031.44
2019-01-28T01:47:14.005Z,98033.77
2019-01-28T01:49:42.384Z,98032.96
2019-01-28T01:52:11.105Z,98036.66
2019-01-28T01:54:39.434Z,98038.66
2019-01-28T01:57:07.939Z,98036.63
2019-01-28T01:59:36.274Z,98033.23
2019-01-28T02:02:04.651Z,98037.61
2019-01-28T02:04:32.985Z,98038.50
2019-01-28T02:07:01.293Z,98037.75
2019-01-28T02:09:29.640Z,98029.16
2019-01-28T02:11:58.081Z,98030.66
2019-01-28T02:14:27.164Z,98029.13
2019-01-28T02:16:55.497Z,98027.83
2019-01-28T02:19:23.848Z,98030.72
2019-01-28T02:21:52.205Z,98028.52
2019-01-28T02:24:20.541Z,98029.38
2019-01-28T02:26:48.876Z,98024.72
2019-01-28T02:29:17.184Z,98032.97
2019-01-28T02:31:45.490Z,98022.17
2019-01-28T02:34:13.934Z,98019.81
2019-01-28T02:36:42.315Z,98026.83
2019-01-28T02:39:11.324Z,98023.88
2019-01-28T02:41:39.723Z,98018.16
2019-01-28T02:44:08.069Z,98019.29
2019-01-28T02:46:36.396Z,98013.77
2019-01-28T02:49:04.824Z,98019.41
2019-01-28T02:51:33.122Z,98017.20
2019-01-28T02:54:01.478Z,98012.95
2019-01-28T02:56:29.794Z,98010.30
2019-01-28T02:58:58.164Z,98006.42
2019-01-28T03:01:26.476Z,97997.27
2019-01-28T03:03:54.886Z,97999.42
2019-01-28T03:06:23.195Z,97997.08
2019-01-28T03:08:51.574Z,97995.83
2019-01-28T03:11:19.913Z,98001.73
2019-01-28T03:13:48.260Z,97996.92
2019-01-28T03:16:16.664Z,97999.78
2019-01-28T03:18:44.985Z,97991.66
2019-01-28T03:21:13.616Z,97996.03
2019-01-28T03:23:42.146Z,97984.12
2019-01-28T03:26:10.747Z,97995.52
2019-01-28T03:28:39.038Z,97981.92
2019-01-28T03:31:07.414Z,97979.41
2019-01-28T03:33:35.805Z,97978.80
2019-01-28T03:36:04.141Z,97976.77
2019-01-28T03:38:32.450Z,97977.06
2019-01-28T03:41:00.800Z,97964.75
2019-01-28T03:43:29.111Z,97959.77
2019-01-28T03:45:57.449Z,97977.37
2019-01-28T03:48:26.099Z,97963.01
2019-01-28T03:50:54.497Z,97961.05
2019-01-28T03:53:22.881Z,97960.05
2019-01-28T03:55:51.347Z,97961.88
2019-01-28T03:58:19.712Z,97960.35
2019-01-28T04:00:48.082Z,97964.64
2019-01-28T04:03:16.506Z,97967.66
2019-01-28T04:05:44.967Z,97964.30
2019-01-28T04:08:13.788Z,97959.83
2019-01-28T04:10:42.273Z,97963.69
2019-01-28T04:13:10.989Z,97959.84
2019-01-28T04:15:39.373Z,97961.09
2019-01-28T04:18:07.699Z,97959.02
2019-01-28T04:20:36.026Z,97959.02
2019-01-28T04:23:04.386Z,97960.36
2019-01-28T04:25:33.348Z,97957.59
2019-01-28T04:28:03.698Z,97955.13
2019-01-28T04:30:32.118Z,97944.08
2019-01-28T04:33:00.444Z,97946.41
2019-01-28T04:35:28.788Z,97944.25
2019-01-28T04:37:57.117Z,97935.41
2019-01-28T04:40:25.480Z,97936.62
2019-01-28T04:42:53.812Z,97935.20
2019-01-28T04:45:22.304Z,97932.23
2019-01-28T04:47:50.680Z,97921.13
2019-01-28T04:50:20.537Z,97918.27
2019-01-28T04:52:48.971Z,97920.50
2019-01-28T04:55:17.404Z,97912.86
2019-01-28T04:57:46.559Z,97915.72
2019-01-28T05:00:19.160Z,97916.03
2019-01-28T05:02:47.595Z,97915.73
2019-01-28T05:05:16.183Z,97909.20
2019-01-28T05:07:44.559Z,97908.61
2019-01-28T05:10:15.151Z,97908.70
2019-01-28T05:12:43.724Z,97900.97
2019-01-28T05:15:15.633Z,97900.64
2019-01-28T05:17:44.070Z,97901.05
2019-01-28T05:20:13.847Z,97895.42
2019-01-28T05:22:42.297Z,97886.88
2019-01-28T05:25:13.697Z,97887.50
2019-01-28T05:27:42.046Z,97879.84
2019-01-28T05:30:14.850Z,97884.64
2019-01-28T05:32:43.419Z,97885.15
2019-01-28T05:35:14.352Z,97884.23
2019-01-28T05:37:42.789Z,97887.78
2019-01-28T05:40:13.843Z,97886.09
2019-01-28T05:42:42.219Z,97883.55
2019-01-28T05:45:14.219Z,97877.10
2019-01-28T05:47:42.685Z,97876.49
2019-01-28T05:50:12.961Z,97870.50
2019-01-28T05:52:42.275Z,97874.98
2019-01-28T05:55:13.897Z,97874.67
2019-01-28T05:57:42.252Z,97868.66
2019-01-28T06:00:15.942Z,97871.61
2019-01-28T06:02:44.274Z,97863.25
2019-01-28T06:05:13.731Z,97860.81
2019-01-28T06:07:42.551Z,97856.44
2019-01-28T06:10:14.141Z,97854.70
2019-01-28T06:12:42.629Z,97864.16
2019-01-28T06:15:15.270Z,97846.95
2019-01-28T06:17:43.708Z,97860.19
2019-01-28T06:20:15.354Z,97850.13
2019-01-28T06:22:43.744Z,97855.89
2019-01-28T06:25:13.127Z,97852.55
2019-01-28T06:27:41.425Z,97847.95
2019-01-28T06:30:14.631Z,97839.11
2019-01-28T06:32:43.001Z,97849.80
2019-01-28T06:35:11.874Z,97848.29
2019-01-28T06:37:40.226Z,97840.81
2019-01-28T06:40:12.990Z,97836.84
2019-01-28T06:42:41.273Z,97839.78
2019-01-28T06:45:12.648Z,97846.13
2019-01-28T06:47:46.640Z,97844.61
2019-01-28T06:50:15.292Z,97850.10
2019-01-28T06:52:43.737Z,97854.56
2019-01-28T06:55:12.636Z,97846.84
2019-01-28T06:57:41.012Z,97850.58
2019-01-28T07:00:15.606Z,97850.06
2019-01-28T07:02:43.916Z,97844.27
2019-01-28T07:05:12.392Z,97845.28
2019-01-28T07:07:40.808Z,97843.05
2019-01-28T07:10:10.744Z,97839.05
2019-01-28T07:12:39.122Z,97858.09
2019-01-28T07:15:10.513Z,97853.28
2019-01-28T07:17:38.886Z,97853.04
2019-01-28T07:20:10.066Z,97855.52
2019-01-28T07:22:38.357Z,97856.63
2019-01-28T07:25:07.090Z,97853.24
2019-01-28T07:27:35.549Z,97855.61
2019-01-28T07:30:05.856Z,97858.84
2019-01-28T07:32:34.176Z,97850.92
2019-01-28T07:35:02.500Z,97854.88
2019-01-28T07:37:30.977Z,97855.29
2019-01-28T07:39:59.266Z,97859.13
2019-01-28T07:42:27.718Z,97853.41
2019-01-28T07:44:56.070Z,97861.55
2019-01-28T07:47:24.478Z,97856.59
2019-01-28T07:49:53.335Z,97864.77
2019-01-28T07:52:21.741Z,97855.64
2019-01-28T07:54:50.119Z,97858.97
2019-01-28T07:57:18.503Z,97865.89
2019-01-28T07:59:46.805Z,97855.27
2019-01-28T08:02:15.133Z,97858.62
2019-01-28T08:04:43.457Z,97855.97
2019-01-28T08:07:11.952Z,97859.72
2019-01-28T08:09:40.327Z,97859.66
2019-01-28T08:12:08.937Z,97861.61
2019-01-28T08:14:37.245Z,97862.02
2019-01-28T08:17:05.779Z,97869.45
2019-01-28T08:19:34.094Z,97863.78
2019-01-28T08:22:02.430Z,97862.64
2019-01-28T08:24:30.741Z,97863.25
2019-01-28T08:26:59.083Z,97867.94
2019-01-28T08:29:27.389Z,97871.21
2019-01-28T08:31:55.717Z,97866.13
2019-01-28T08:34:24.069Z,97878.76
2019-01-28T08:36:52.516Z,97872.22
2019-01-28T08:39:20.899Z,97866.84
2019-01-28T08:41:49.223Z,97873.22
2019-01-28T08:44:18.563Z,97868.64
2019-01-28T08:46:46.912Z,97874.77
2019-01-28T08:49:15.237Z,97869.47
2019-01-28T08:51:43.565Z,97876.86
2019-01-28T08:54:11.908Z,97873.73
2019-01-28T08:56:40.458Z,97876.77
2019-01-28T08:59:09.010Z,97870.88
2019-01-28T09:01:37.511Z,97869.55
2019-01-28T09:04:06.177Z,97883.09
2019-01-28T09:06:34.515Z,97872.80
2019-01-28T09:09:05.272Z,97881.88
2019-01-28T09:11:33.583Z,97884.73
2019-01-28T09:14:01.947Z,97874.97
2019-01-28T09:16:30.375Z,97887.88
2019-01-28T09:18:58.707Z,97881.77
2019-01-28T09:21:27.101Z,97889.52
2019-01-28T09:23:55.518Z,97885.34
2019-01-28T09:26:23.898Z,97886.77
2019-01-28T09:28:52.298Z,97883.80
2019-01-28T09:31:21.512Z,97888.95
2019-01-28T09:33:49.920Z,97892.21
2019-01-28T09:36:18.380Z,97886.71
2019-01-28T09:38:46.758Z,97893.61
2019-01-28T09:41:15.067Z,97894.80
2019-01-28T09:43:43.801Z,97889.77
2019-01-28T09:46:12.234Z,97896.55
2019-01-28T09:48:40.569Z,97900.05
2019-01-28T09:51:09.161Z,97905.44
2019-01-28T09:53:37.563Z,97908.09
2019-01-28T09:56:06.119Z,97912.36
2019-01-28T09:58:34.418Z,97910.56
2019-01-28T10:01:03.571Z,97914.27
2019-01-28T10:03:31.905Z,97912.59
2019-01-28T10:06:00.221Z,97918.84
2019-01-28T10:08:28.601Z,97914.47
2019-01-28T10:10:57.056Z,97921.52
2019-01-28T10:13:25.386Z,97923.87
2019-01-28T10:15:53.717Z,97923.16
2019-01-28T10:18:22.060Z,97916.16
2019-01-28T10:20:50.439Z,97927.29
2019-01-28T10:23:18.755Z,97928.10
2019-01-28T10:25:47.244Z,97933.06
2019-01-28T10:28:15.691Z,97936.86
2019-01-28T10:30:45.322Z,97935.23
2019-01-28T10:33:13.768Z,97935.61
2019-01-28T10:35:43.212Z,97940.02
2019-01-28T10:38:11.663Z,97922.65
2019-01-28T10:40:42.928Z,97925.81
2019-01-28T10:43:11.398Z,97928.66
2019-01-28T10:45:39.798Z,97922.15
2019-01-28T10:48:09.069Z,97914.83
2019-01-28T10:50:37.884Z,97927.05
2019-01-28T10:53:06.572Z,97930.49
2019-01-28T10:55:34.975Z,97926.74
2019-01-28T10:58:03.881Z,97924.29
2019-01-28T11:00:35.627Z,97921.03
2019-01-28T11:03:05.501Z,97933.06
2019-01-28T11:05:33.851Z,97925.02
2019-01-28T11:08:02.362Z,97926.34
2019-01-28T11:10:30.894Z,97939.47
2019-01-28T11:12:59.270Z,97933.95
2019-01-28T11:15:29.559Z,97932.85
2019-01-28T11:18:00.656Z,97929.58
2019-01-28T11:20:29.321Z,97928.58
2019-01-28T11:22:57.849Z,97929.81
2019-01-28T11:25:29.461Z,97931.73
2019-01-28T11:27:57.844Z,97938.14
2019-01-28T11:30:32.009Z,97947.72
2019-01-28T11:33:01.598Z,97941.00
2019-01-28T11:35:30.139Z,97947.03
2019-01-28T11:37:58.668Z,97945.31
2019-01-28T11:40:27.095Z,97949.47
2019-01-28T11:42:55.603Z,97954.23
2019-01-28T11:45:26.930Z,97957.31
2019-01-28T11:47:55.459Z,97960.06
2019-01-28T11:50:23.927Z,97952.02
2019-01-28T11:52:52.371Z,97949.17
2019-01-28T11:55:20.759Z,97955.49
2019-01-28T11:57:49.166Z,97954.89
2019-01-28T12:00:25.848Z,97958.46
2019-01-28T12:02:54.255Z,97949.28
2019-01-28T12:05:22.657Z,97953.96
2019-01-28T12:07:51.425Z,97964.06
2019-01-28T12:10:19.833Z,97977.11
2019-01-28T12:12:48.256Z,97974.46
2019-01-28T12:15:18.798Z,97977.31
2019-01-28T12:17:47.185Z,97984.74
2019-01-28T12:20:16.963Z,97993.22
2019-01-28T12:22:45.404Z,97986.50
2019-01-28T12:25:14.307Z,97988.53
2019-01-28T12:27:42.994Z,97999.94
2019-01-28T12:30:17.612Z,98004.73
2019-01-28T12:32:45.995Z,98002.09
2019-01-28T12:35:14.477Z,98008.91
2019-01-28T12:37:42.808Z,98020.76
2019-01-28T12:40:14.853Z,98025.95
2019-01-28T12:42:43.480Z,98025.63
2019-01-28T12:45:14.249Z,98024.41
2019-01-28T12:47:42.869Z,98024.08
2019-01-28T12:50:12.798Z,98022.84
2019-01-28T12:52:41.209Z,98023.23
2019-01-28T12:55:13.485Z,98028.23
2019-01-28T12:57:41.799Z,98024.25
2019-01-28T13:00:15.254Z,98032.52
2019-01-28T13:02:43.596Z,98032.86
2019-01-28T13:05:13.926Z,98033.67
2019-01-28T13:07:42.296Z,98032.55
2019-01-28T13:10:13.592Z,98049.92
2019-01-28T13:12:41.897Z,98045.43
2019-01-28T13:15:14.474Z,98054.53
2019-01-28T13:17:42.785Z,98062.67
2019-01-28T13:20:11.902Z,98060.53
2019-01-28T13:22:44.841Z,98065.14
2019-01-28T13:28:16.277Z,98062.49
2019-01-28T13:30:44.611Z,98072.38
2019-01-28T13:33:13.881Z,98068.89
2019-01-28T13:35:42.340Z,98073.00
2019-01-28T13:38:10.736Z,98075.13
2019-01-28T13:40:39.163Z,98086.88
2019-01-28T13:43:07.814Z,98085.75
2019-01-28T13:45:36.261Z,98096.77
2019-01-28T13:48:06.714Z,98092.06
2019-01-28T13:50:35.090Z,98096.67
2019-01-28T13:53:03.592Z,98108.09
2019-01-28T13:55:31.947Z,98106.06
2019-01-28T13:58:00.449Z,98111.47
2019-01-28T14:00:29.710Z,98111.98
2019-01-28T14:02:58.510Z,98117.91
2019-01-28T14:05:27.247Z,98130.55
2019-01-28T14:07:56.288Z,98133.91
2019-01-28T14:10:25.756Z,98134.42
2019-01-28T14:12:54.110Z,98136.16
2019-01-28T14:15:27.510Z,98138.81
2019-01-28T14:17:55.888Z,98135.75
2019-01-28T14:20:27.105Z,98138.73
2019-01-28T14:22:55.806Z,98148.80
2019-01-28T14:25:24.343Z,98155.27
2019-01-28T14:27:52.763Z,98167.39
2019-01-28T14:30:28.218Z,98165.86
2019-01-28T14:32:56.687Z,98174.03
2019-01-28T14:35:25.611Z,98177.92
2019-01-28T14:37:54.051Z,98180.16
2019-01-28T14:40:24.948Z,98183.21
2019-01-28T14:42:53.747Z,98184.88
2019-01-28T14:45:23.389Z,98184.05
2019-01-28T14:47:51.707Z,98185.69
2019-01-28T14:50:25.696Z,98199.55
2019-01-28T14:52:54.237Z,98205.86
2019-01-28T14:55:22.855Z,98198.33
2019-01-28T14:57:51.395Z,98200.88
2019-01-28T15:00:24.993Z,98217.89
2019-01-28T15:02:53.404Z,98215.34
2019-01-28T15:05:22.309Z,98227.59
2019-01-28T15:07:51.711Z,98231.05
2019-01-28T15:10:20.536Z,98234.70
2019-01-28T15:12:49.020Z,98241.98
2019-01-28T15:15:19.467Z,98244.52
2019-01-28T15:17:47.870Z,98246.98
2019-01-28T15:20:16.351Z,98258.70
2019-01-28T15:22:44.650Z,98261.47
2019-01-28T15:25:15.277Z,98267.52
2019-01-28T15:30:14.384Z,98274.55
2019-01-28T15:32:43.266Z,98280.58
2019-01-28T15:35:11.782Z,98283.74
2019-01-28T15:37:40.214Z,98288.03
2019-01-28T15:40:14.245Z,98292.69
2019-01-28T15:42:42.689Z,98299.77
2019-01-28T15:45:16.306Z,98293.20
2019-01-28T15:47:44.901Z,98302.89
2019-01-28T15:50:15.050Z,98302.66
2019-01-28T15:52:43.501Z,98315.34
2019-01-28T15:55:16.317Z,98323.27
2019-01-28T15:57:44.732Z,98328.92
2019-01-28T16:00:16.384Z,98324.38
2019-01-28T16:02:44.873Z,98327.34
2019-01-28T16:05:13.304Z,98339.70
2019-01-28T16:07:41.646Z,98343.16
2019-01-28T16:10:13.179Z,98344.02
2019-01-28T16:12:41.659Z,98355.25
2019-01-28T16:15:14.602Z,98349.53
2019-01-28T16:17:42.993Z,98351.92
2019-01-28T16:20:18.449Z,98366.07
2019-01-28T16:22:43.159Z,98365.86
2019-01-28T16:25:12.346Z,98373.39
2019-01-28T16:27:40.753Z,98371.92
2019-01-28T16:30:13.455Z,98377.94
2019-01-28T16:32:41.859Z,98376.55
2019-01-28T16:35:13.665Z,98383.69
2019-01-28T16:37:42.072Z,98397.17
2019-01-28T16:40:12.311Z,98402.28
2019-01-28T16:42:40.681Z,98414.41
2019-01-28T16:45:12.188Z,98417.16
2019-01-28T16:47:40.565Z,98421.36
2019-01-28T16:50:13.565Z,98428.19
2019-01-28T16:52:41.896Z,98432.05
2019-01-28T16:55:13.355Z,98434.08
2019-01-28T16:57:42.193Z,98434.25
2019-01-28T17:00:15.666Z,98440.46
2019-01-28T17:02:44.372Z,98439.41
2019-01-28T17:05:13.764Z,98455.86
2019-01-28T17:07:42.217Z,98462.16
2019-01-28T17:10:14.374Z,98466.89
2019-01-28T17:12:42.881Z,98475.81
2019-01-28T17:15:15.345Z,98483.69
2019-01-28T17:17:43.944Z,98495.31
2019-01-28T17:20:14.842Z,98489.39
2019-01-28T17:22:43.284Z,98495.54
2019-01-28T17:25:14.660Z,98502.52
2019-01-28T17:27:43.051Z,98508.55
2019-01-28T17:30:17.021Z,98512.11
2019-01-28T17:32:45.401Z,98519.89
2019-01-28T17:35:14.161Z,98531.00
2019-01-28T17:37:42.501Z,98529.06
2019-01-28T17:40:15.463Z,98535.23
2019-01-28T17:42:43.837Z,98547.94
2019-01-28T17:45:13.469Z,98550.95
2019-01-28T17:47:41.807Z,98559.56
2019-01-28T17:50:12.870Z,98561.75
2019-01-28T17:52:41.231Z,98570.29
2019-01-28T17:55:11.904Z,98571.54
2019-01-28T17:57:40.280Z,98576.41
2019-01-28T18:00:13.329Z,98582.42
2019-01-28T18:02:41.672Z,98587.84
2019-01-28T18:05:10.558Z,98588.23
2019-01-28T18:07:39.014Z,98601.33
2019-01-28T18:10:11.639Z,98608.93
2019-01-28T18:12:39.944Z,98618.63
2019-01-28T18:15:12.396Z,98617.25
2019-01-28T18:17:40.691Z,98624.14
2019-01-28T18:20:12.540Z,98632.48
2019-01-28T18:22:43.795Z,98637.00
2019-01-28T18:25:17.046Z,98638.75
2019-01-28T18:27:45.430Z,98646.09
2019-01-28T18:30:17.226Z,98651.69
2019-01-28T18:32:45.660Z,98664.33
2019-01-28T18:35:14.647Z,98657.45
2019-01-28T18:37:43.576Z,98662.13
2019-01-28T18:40:14.777Z,98675.55
2019-01-28T18:42:43.197Z,98680.71
2019-01-28T18:45:18.206Z,98689.92
2019-01-28T18:47:44.316Z,98694.41
2019-01-28T18:50:15.682Z,98701.05
2019-01-28T18:52:44.045Z,98706.23
2019-01-28T18:55:14.336Z,98711.28
2019-01-28T18:57:42.793Z,98715.16
2019-01-28T19:00:16.253Z,98718.54
2019-01-28T19:02:44.693Z,98728.73
2019-01-28T19:05:15.873Z,98737.11
2019-01-28T19:07:46.169Z,98741.42
2019-01-28T19:10:17.750Z,98743.77
2019-01-28T19:12:48.318Z,98749.26
2019-01-28T19:15:19.061Z,98760.66
2019-01-28T19:17:50.135Z,98768.05
2019-01-28T19:20:22.290Z,98775.45
2019-01-28T19:22:50.728Z,98780.57
2019-01-28T19:25:19.188Z,98783.91
2019-01-28T19:27:47.513Z,98790.02
2019-01-28T19:30:17.276Z,98790.86
2019-01-28T19:32:45.618Z,98799.13
2019-01-28T19:35:14.563Z,98800.42
2019-01-28T19:37:42.993Z,98808.11
2019-01-28T19:40:13.260Z,98816.60
2019-01-28T19:42:41.794Z,98829.91
2019-01-28T19:45:13.057Z,98843.98
2019-01-28T19:47:41.466Z,98844.64
2019-01-28T19:50:13.664Z,98853.02
2019-01-28T19:52:42.085Z,98850.81
2019-01-28T19:55:13.368Z,98847.66
2019-01-28T19:57:41.699Z,98856.12
2019-01-28T20:00:15.658Z,98852.03
2019-01-28T20:02:44.286Z,98853.91
2019-01-28T20:05:13.163Z,98862.29
2019-01-28T20:07:41.620Z,98859.91
2019-01-28T20:10:12.289Z,98861.03
2019-01-28T20:12:40.758Z,98871.81
2019-01-28T20:15:13.172Z,98871.15
2019-01-28T20:17:41.514Z,98868.50
2019-01-28T20:20:12.061Z,98869.62
2019-01-28T20:22:40.454Z,98879.53
2019-01-28T20:25:10.180Z,98874.15
2019-01-28T20:27:38.570Z,98882.67
2019-01-28T20:30:10.262Z,98892.86
2019-01-28T20:32:38.609Z,98901.81
2019-01-28T20:35:09.756Z,98902.45
2019-01-28T20:37:38.187Z,98899.21
2019-01-28T20:40:10.492Z,98914.68
2019-01-28T20:42:39.791Z,98915.23
2019-01-28T20:45:11.721Z,98920.17
2019-01-28T20:47:40.017Z,98921.86
2019-01-28T20:50:12.803Z,98928.07
2019-01-28T20:52:41.258Z,98931.98
2019-01-28T20:55:09.901Z,98938.67
2019-01-28T20:57:38.354Z,98934.52
2019-01-28T21:00:12.872Z,98939.63
2019-01-28T21:02:41.241Z,98950.91
2019-01-28T21:05:13.432Z,98951.73
2019-01-28T21:07:41.973Z,98967.14
2019-01-28T21:10:12.560Z,98963.50
2019-01-28T21:12:40.937Z,98958.74
2019-01-28T21:15:12.042Z,98964.50
2019-01-28T21:17:40.430Z,98966.81
2019-01-28T21:20:12.540Z,98976.09
2019-01-28T21:22:41.001Z,98974.60
2019-01-28T21:25:12.678Z,98969.53
2019-01-28T21:27:41.053Z,98982.92
2019-01-28T21:30:14.542Z,98990.86
2019-01-28T21:32:42.887Z,98984.15
2019-01-28T21:35:11.779Z,98996.62
2019-01-28T21:37:42.046Z,98989.05
2019-01-28T21:40:12.087Z,98994.84
2019-01-28T21:42:40.469Z,98998.23
2019-01-28T21:45:13.861Z,99000.27
2019-01-28T21:47:44.567Z,99010.57
2019-01-28T21:50:13.100Z,99011.56
2019-01-28T21:52:41.398Z,99014.36
2019-01-28T21:55:10.404Z,99014.03
2019-01-28T21:57:38.693Z,99014.41
2019-01-28T22:00:10.729Z,99011.94
2019-01-28T22:02:39.075Z,99020.03
2019-01-28T22:05:07.950Z,99026.97
2019-01-28T22:07:36.319Z,99033.61
2019-01-28T22:10:08.541Z,99037.41
2019-01-28T22:12:36.913Z,99042.47
2019-01-28T22:15:10.773Z,99049.02
2019-01-28T22:17:39.079Z,99053.35
2019-01-28T22:20:09.224Z,99059.79
2019-01-28T22:22:37.567Z,99058.56
2019-01-28T22:25:10.339Z,99069.21
2019-01-28T22:27:38.641Z,99072.59
2019-01-28T22:30:11.743Z,99074.59
2019-01-28T22:32:40.061Z,99075.02
2019-01-28T22:35:08.747Z,99082.79
2019-01-28T22:37:37.155Z,99083.16
2019-01-28T22:40:09.349Z,99088.78
2019-01-28T22:42:37.728Z,99089.59
2019-01-28T22:45:10.264Z,99085.20
2019-01-28T22:47:38.650Z,99083.05
2019-01-28T22:50:10.727Z,99094.12
2019-01-28T22:52:39.096Z,99092.11
2019-01-28T22:55:10.980Z,99089.14
2019-01-28T22:57:40.176Z,99092.58
2019-01-28T23:00:14.240Z,99095.59
2019-01-28T23:02:45.066Z,99100.66
2019-01-28T23:05:14.261Z,99099.70
2019-01-28T23:07:42.673Z,99096.81
2019-01-28T23:10:11.498Z,99099.78
2019-01-28T23:12:39.807Z,99097.95
2019-01-28T23:15:10.329Z,99108.77
2019-01-28T23:17:41.457Z,99118.48
2019-01-28T23:20:12.691Z,99114.50
2019-01-28T23:22:41.961Z,99118.66
2019-01-28T23:25:10.867Z,99122.53
2019-01-28T23:27:39.195Z,99122.63
2019-01-28T23:30:13.501Z,99116.05
2019-01-28T23:32:42.377Z,99121.63
2019-01-28T23:35:11.848Z,99134.30
2019-01-28T23:37:41.562Z,99141.08
2019-01-28T23:40:13.397Z,99138.28
2019-01-28T23:42:42.363Z,99143.41
2019-01-28T23:45:13.673Z,99148.73
2019-01-28T23:47:44.652Z,99137.66
2019-01-28T23:50:15.372Z,99148.79
2019-01-28T23:52:43.900Z,99157.71
2019-01-28T23:55:13.066Z,99161.89
2019-01-28T23:57:41.709Z,99168.46
